Share

Samos, Greece

Samos (LGSM) Elev 23 ft | 37.69 °N, 26.91 °E | Change Station

Current weather conditions updated 26 minutes ago

Scattered Clouds
Scattered Clouds
63 °F
Feels Like 63 °F
N
14
Wind Variable Wind from SW
Sunrise 6:32 AM
Sunset 7:51 PM
Moon Waning Gibbous

Tomorrow is forecast to be nearly the same temperature as today.

Pressure 29.98 in
Visibility 6.2 miles
Clouds Few 2000 ft
Scattered Clouds 3000 ft
Dew Point 48 °F
Humidity 59%
Rainfall 0.00 in
Snow Depth Not available.
UV 1 out of 16
Pollen Not available.
Air Quality Not available.
Flu Activity Not available.
METAR LGSM 191520Z 22012KT 9999 FEW020 SCT030 17/09 Q1015

More Conditions Fewer Conditions

Pressure 29.98 in
Visibility 6.2 miles
Clouds Few 2000 ft
Scattered Clouds 3000 ft
Dew Point 48 °F
Humidity 59%
Rainfall 0.00 in
Snow Depth Not available.
UV 1 out of 16
Pollen Not available.
Air Quality Not available.
Flu Activity Not available.
METAR LGSM 191520Z 22012KT 9999 FEW020 SCT030 17/09 Q1015

More Conditions Fewer Conditions

10-Day Weather Forecast

Almanac

Astronomy

Apr. 19, 2014 Rise Set
Actual Time 6:32 AM EEST 7:51 PM EEST
Civil Twilight 6:04 AM EEST 8:18 PM EEST
Nautical Twilight 5:32 AM EEST 8:51 PM EEST
Astronomical Twilight 4:58 AM EEST 9:25 PM EEST
Moon No Moon Rise 9:34 AM EEST
Length of Visible Light 14h 13m
Length of Day
13h 19m
Tomorrow will be 2m 16s longer.
Waning Gibbous, 79% of the Moon is Illuminated
Today
Waning Gibbous
Apr 22
Last Quarter
Apr 29
New
May 6
First Quarter
May 14
Full

Today's Extremes

Country Highs Country Lows

Community

  • A Glorious Morning
    A Glorious Morning
  • Tender Rays Of Hope
    Tender Rays Of Hope
  • Bleeding Hearts
    Bleeding Hearts
  • Sunset Silhouettes
    Sunset Silhouettes
  • FL sunset Perico Isle
    FL sunset Perico Isle

WunderPhotos

Upload Photos

1,702,769 photos uploaded!

WunderBlogs® & News

Nearby

Snow Depth

Not available.

Coastal Water Temperatures

Place Temperature
No Stations Reporting

Earthquake Activity

City Distance Mag. Time & Date
No recent earthquake activity has been reported nearby.
Minimum magnitude displayed is 2.5.

Nearby Weather Stations

There are no personal weather stations in this area.

What do you think?

We're not finished. Please let us know what you like, what you don't like, and what you are still missing.